Cabo De Hornos — H8PC — position and weather

sailwx.info

Track history (hours):
 
Tides and Currents Weather Stations Pressure Air Temp Water Temp Dewpoint Dewpoint Depression Visibility Wind Speed Wind Dir Waves Ship Positions

Cabo De Hornos

Last reported at 2018-Jan-22 22:29 UTC. Time now 2018-Jan-22 22:31 UTC.
Position N 34°20' W 120°26'.

Length 229 m; draft 11 m.

Type: Tanker. MMSI: 357628000.

Date/timePositionNaut miles runAvg speedWind from/ knotsBaromVisibWave heightAir tempDewpointWater temp
2018-Jan-22 22:29N 34°20' W 120°26'611.7
2018-Jan-22 22:00N 34°19' W 120°19'612.2
2018-Jan-22 21:29N 34°17' W 120°12'612.4
2018-Jan-22 21:00N 34°16' W 120°05'712.5
2018-Jan-22 20:28N 34°14' W 119°57'612.5
2018-Jan-22 19:59N 34°12' W 119°50'612.9
2018-Jan-22 19:30N 34°11' W 119°43'713.0
2018-Jan-22 18:59N 34°09' W 119°35'713.0
2018-Jan-22 18:29N 34°07' W 119°27'712.8
2018-Jan-22 17:58N 34°05' W 119°20'612.8
2018-Jan-22 17:29N 34°03' W 119°13'613.0
2018-Jan-22 17:00N 34°00' W 119°06'713.0
2018-Jan-22 16:29N 33°57' W 118°59'612.7
2018-Jan-22 16:00N 33°54' W 118°53'612.9
2018-Jan-22 15:30N 33°51' W 118°46'713.0
2018-Jan-22 15:00N 33°47' W 118°39'612.8
2018-Jan-22 14:30N 33°44' W 118°33'612.6
2018-Jan-22 14:00N 33°41' W 118°26'612.3
2018-Jan-22 13:30N 33°38' W 118°19'510.4
2018-Jan-22 13:00N 33°37' W 118°13'510.6
2018-Jan-22 12:30N 33°34' W 118°09'612.2
2018-Jan-22 12:00N 33°28' W 118°06'912.7
2018-Jan-22 11:20N 33°20' W 118°03'412.8
2018-Jan-22 11:00N 33°16' W 118°01'612.9
2018-Jan-22 10:30N 33°10' W 117°58'612.6
2018-Jan-22 10:00N 33°05' W 117°55'612.6
2018-Jan-22 09:30N 32°59' W 117°52'612.4
2018-Jan-22 09:00N 32°53' W 117°49'612.3
2018-Jan-22 08:30N 32°47' W 117°46'612.2
2018-Jan-22 08:00N 32°42' W 117°43'612.0
2018-Jan-22 07:30N 32°36' W 117°40'612.0
2018-Jan-22 07:00N 32°31' W 117°38'612.2
2018-Jan-22 06:30N 32°25' W 117°36'  
Track history (hours):
 
Tides and Currents Weather Stations Pressure Air Temp Water Temp Dewpoint Dewpoint Depression Visibility Wind Speed Wind Dir Waves Ship Positions

Cabo De Hornos

Last reported at 2018-Jan-22 22:29 UTC. Time now 2018-Jan-22 22:31 UTC.
Position N 34°20' W 120°26'.

Length 229 m; draft 11 m.

Type: Tanker. MMSI: 357628000.

Date/timePositionNaut miles runAvg speedWind from/ knotsBaromVisibWave heightAir tempDewpointWater temp
2018-Jan-22 22:29N 34°20' W 120°26'611.7
2018-Jan-22 22:00N 34°19' W 120°19'612.2
2018-Jan-22 21:29N 34°17' W 120°12'612.4
2018-Jan-22 21:00N 34°16' W 120°05'712.5
2018-Jan-22 20:28N 34°14' W 119°57'612.5
2018-Jan-22 19:59N 34°12' W 119°50'612.9
2018-Jan-22 19:30N 34°11' W 119°43'713.0
2018-Jan-22 18:59N 34°09' W 119°35'713.0
2018-Jan-22 18:29N 34°07' W 119°27'712.8
2018-Jan-22 17:58N 34°05' W 119°20'612.8
2018-Jan-22 17:29N 34°03' W 119°13'613.0
2018-Jan-22 17:00N 34°00' W 119°06'713.0
2018-Jan-22 16:29N 33°57' W 118°59'612.7
2018-Jan-22 16:00N 33°54' W 118°53'612.9
2018-Jan-22 15:30N 33°51' W 118°46'713.0
2018-Jan-22 15:00N 33°47' W 118°39'612.8
2018-Jan-22 14:30N 33°44' W 118°33'612.6
2018-Jan-22 14:00N 33°41' W 118°26'612.3
2018-Jan-22 13:30N 33°38' W 118°19'510.4
2018-Jan-22 13:00N 33°37' W 118°13'510.6
2018-Jan-22 12:30N 33°34' W 118°09'612.2
2018-Jan-22 12:00N 33°28' W 118°06'912.7
2018-Jan-22 11:20N 33°20' W 118°03'412.8
2018-Jan-22 11:00N 33°16' W 118°01'612.9
2018-Jan-22 10:30N 33°10' W 117°58'612.6
2018-Jan-22 10:00N 33°05' W 117°55'612.6
2018-Jan-22 09:30N 32°59' W 117°52'612.4
2018-Jan-22 09:00N 32°53' W 117°49'612.3
2018-Jan-22 08:30N 32°47' W 117°46'612.2
2018-Jan-22 08:00N 32°42' W 117°43'612.0
2018-Jan-22 07:30N 32°36' W 117°40'612.0
2018-Jan-22 07:00N 32°31' W 117°38'612.2
2018-Jan-22 06:30N 32°25' W 117°36'  

Dump ship's entire track history